Time;durP1;ratioP1;P1;durP2;ratioP2;P2;SDS_P1;SDS_P2;PMS_P1;PMS_P2;Temp;Humidity;BMP_temperature;BMP_pressure;BME280_temperature;BME280_humidity;BME280_pressure;Samples;Min_cycle;Max_cycle;Signal;HPM_P1;HPM_P2
2021/05/07 00:00:09;;;;;;;4.40;3.40;;;7.10;98.10;;;;;;4916910;29;20479;-76
2021/05/07 00:02:36;;;;;;;4.47;3.50;;;7.10;98.20;;;;;;4940588;29;20547;-77
2021/05/07 00:05:05;;;;;;;4.87;4.30;;;7.10;98.30;;;;;;4954111;28;20484;-77
2021/05/07 00:07:32;;;;;;;5.33;3.80;;;7.10;98.40;;;;;;4934741;28;20940;-77
2021/05/07 00:10:00;;;;;;;4.50;3.70;;;7.10;98.50;;;;;;4935765;29;20525;-77
2021/05/07 00:12:27;;;;;;;4.93;3.53;;;7.10;98.50;;;;;;4938852;29;20497;-77
2021/05/07 00:14:55;;;;;;;6.07;4.10;;;7.10;98.60;;;;;;4917036;29;20516;-77
2021/05/07 00:17:22;;;;;;;5.00;3.97;;;7.10;98.60;;;;;;4920124;29;20470;-77
2021/05/07 00:19:50;;;;;;;5.67;4.40;;;7.10;98.70;;;;;;4935566;29;20478;-76
2021/05/07 00:22:17;;;;;;;5.63;4.00;;;7.10;98.70;;;;;;4934338;29;21017;-76
2021/05/07 00:24:45;;;;;;;4.77;4.27;;;7.10;98.80;;;;;;4935617;29;20541;-76
2021/05/07 00:27:16;;;;;;;4.33;3.93;;;7.00;98.80;;;;;;4934339;29;20548;-77
2021/05/07 00:29:46;;;;;;;4.47;4.00;;;7.00;98.80;;;;;;4935338;29;20448;-77
2021/05/07 00:32:13;;;;;;;4.67;4.27;;;7.00;98.90;;;;;;4939128;29;20963;-77
2021/05/07 00:34:41;;;;;;;5.03;3.97;;;7.00;99.00;;;;;;4953526;29;20589;-77
2021/05/07 00:37:08;;;;;;;4.40;4.00;;;7.00;99.00;;;;;;4942573;28;20466;-77
2021/05/07 00:39:36;;;;;;;5.17;4.03;;;7.00;99.10;;;;;;4937700;29;21074;-77
2021/05/07 00:42:04;;;;;;;5.03;4.07;;;6.90;99.10;;;;;;4937681;29;20453;-77
2021/05/07 00:44:34;;;;;;;6.17;4.17;;;6.90;99.20;;;;;;4937166;29;20533;-77
2021/05/07 00:47:04;;;;;;;3.80;3.37;;;6.90;99.20;;;;;;4937329;29;20880;-77
2021/05/07 00:49:34;;;;;;;6.83;4.53;;;6.90;99.30;;;;;;4937743;29;20813;-77
2021/05/07 00:52:05;;;;;;;4.03;3.63;;;6.90;99.30;;;;;;4924145;29;20967;-77
2021/05/07 00:54:34;;;;;;;3.80;3.40;;;6.90;99.40;;;;;;4918658;29;20463;-77
2021/05/07 00:57:02;;;;;;;4.20;3.80;;;6.90;99.40;;;;;;4919783;29;20955;-78
2021/05/07 00:59:29;;;;;;;5.30;4.60;;;6.90;99.50;;;;;;4918403;29;20470;-77
2021/05/07 01:01:57;;;;;;;5.10;4.60;;;6.90;99.50;;;;;;4918498;29;20837;-77
2021/05/07 01:04:26;;;;;;;4.77;4.37;;;6.90;99.60;;;;;;4918822;29;20479;-77
2021/05/07 01:06:54;;;;;;;6.20;4.23;;;6.80;99.60;;;;;;4929044;28;20519;-77
2021/05/07 01:09:22;;;;;;;4.93;4.40;;;6.80;99.60;;;;;;4934423;29;20536;-77
2021/05/07 01:11:49;;;;;;;4.70;4.00;;;6.90;99.90;;;;;;4937241;29;20225;-77
2021/05/07 01:14:17;;;;;;;4.80;4.23;;;6.90;99.90;;;;;;4937153;29;20485;-76
2021/05/07 01:16:44;;;;;;;4.80;4.20;;;6.80;99.90;;;;;;4955801;29;20456;-77
2021/05/07 01:19:14;;;;;;;5.40;4.22;;;6.80;99.90;;;;;;4947555;28;20454;-77
2021/05/07 01:21:44;;;;;;;5.87;4.43;;;6.90;99.90;;;;;;4938588;29;20245;-76
2021/05/07 01:24:12;;;;;;;4.10;3.80;;;6.90;99.90;;;;;;4937031;29;20843;-76
2021/05/07 01:26:41;;;;;;;4.70;4.00;;;6.90;99.90;;;;;;4924436;29;20457;-77
2021/05/07 01:29:11;;;;;;;5.93;4.50;;;6.80;99.90;;;;;;4934321;29;20459;-77
2021/05/07 01:31:41;;;;;;;5.20;3.97;;;6.80;99.90;;;;;;4936909;29;20975;-77
2021/05/07 01:34:09;;;;;;;5.00;4.50;;;6.80;99.90;;;;;;4936764;29;21071;-76
2021/05/07 01:36:37;;;;;;;7.00;3.90;;;6.80;99.90;;;;;;4940867;29;20857;-77
2021/05/07 01:39:06;;;;;;;4.93;4.40;;;6.70;99.90;;;;;;4936717;29;20482;-77
2021/05/07 01:41:35;;;;;;;4.63;4.13;;;6.70;99.90;;;;;;4936041;29;20461;-77
2021/05/07 01:44:03;;;;;;;4.77;4.37;;;6.70;99.90;;;;;;4921196;29;20493;-77
2021/05/07 01:46:30;;;;;;;5.10;4.60;;;6.70;99.90;;;;;;4935558;29;20441;-77
2021/05/07 01:48:58;;;;;;;5.83;4.70;;;6.70;99.90;;;;;;4938029;28;20460;-77
2021/05/07 01:51:25;;;;;;;6.03;4.80;;;6.70;99.90;;;;;;4936203;29;20501;-77
2021/05/07 01:53:58;;;;;;;6.47;5.13;;;6.70;99.90;;;;;;4921319;29;20489;-77
2021/05/07 01:56:26;;;;;;;4.97;4.57;;;6.60;99.90;;;;;;4917498;29;21042;-76
2021/05/07 01:58:54;;;;;;;6.50;4.60;;;6.60;99.90;;;;;;4918644;29;20471;-76
2021/05/07 02:01:22;;;;;;;6.87;5.00;;;6.60;99.90;;;;;;4917539;29;20457;-76
2021/05/07 02:03:52;;;;;;;5.20;4.70;;;6.60;99.90;;;;;;4917542;29;20482;-76
2021/05/07 02:06:31;;;;;;;5.40;4.90;;;6.60;99.90;;;;;;4917664;29;20983;-77
2021/05/07 02:08:59;;;;;;;5.63;4.63;;;6.60;99.90;;;;;;4917210;29;20832;-77
2021/05/07 02:11:27;;;;;;;5.20;4.70;;;6.60;99.90;;;;;;4917235;29;20465;-77
2021/05/07 02:14:01;;;;;;;4.70;4.30;;;6.60;99.90;;;;;;4917258;29;20478;-76
2021/05/07 02:16:28;;;;;;;5.03;4.63;;;6.60;99.90;;;;;;4918735;29;20454;-76
2021/05/07 02:19:01;;;;;;;5.60;5.10;;;6.50;99.90;;;;;;4942798;28;20500;-76
2021/05/07 02:21:30;;;;;;;5.77;5.27;;;6.50;99.90;;;;;;4934639;29;20516;-77
2021/05/07 02:23:59;;;;;;;5.00;4.60;;;6.50;99.90;;;;;;4935965;29;20521;-77
2021/05/07 02:26:28;;;;;;;5.73;5.10;;;6.50;99.90;;;;;;4937018;29;20544;-76
2021/05/07 02:28:57;;;;;;;5.57;5.07;;;6.50;99.90;;;;;;4938009;29;20482;-76
2021/05/07 02:31:27;;;;;;;6.80;6.30;;;6.50;99.90;;;;;;4936286;29;20480;-77
2021/05/07 02:33:55;;;;;;;6.73;6.13;;;6.40;99.90;;;;;;4936029;29;20476;-77
2021/05/07 02:36:22;;;;;;;6.07;5.57;;;6.40;99.90;;;;;;4936040;29;20830;-77
2021/05/07 02:38:50;;;;;;;8.50;7.60;;;6.40;99.90;;;;;;4951408;29;20550;-77
2021/05/07 02:41:19;;;;;;;7.40;6.70;;;6.40;99.90;;;;;;4940168;28;20536;-77
2021/05/07 02:43:49;;;;;;;7.57;6.97;;;6.40;99.90;;;;;;4923395;29;20975;-76
2021/05/07 02:46:23;;;;;;;8.50;7.80;;;6.40;99.90;;;;;;4916625;29;20449;-76
2021/05/07 02:48:51;;;;;;;8.90;8.20;;;6.40;99.90;;;;;;4917001;29;20465;-77
2021/05/07 02:51:18;;;;;;;8.33;7.53;;;6.40;99.90;;;;;;4918268;29;20835;-77
2021/05/07 02:53:46;;;;;;;9.47;8.57;;;6.40;99.90;;;;;;4915901;29;20538;-77
2021/05/07 02:56:16;;;;;;;9.00;8.20;;;6.40;99.90;;;;;;4916346;29;20871;-77
2021/05/07 02:58:44;;;;;;;10.00;9.00;;;6.30;99.90;;;;;;4916253;29;20473;-77
2021/05/07 03:01:12;;;;;;;9.70;8.83;;;6.30;99.90;;;;;;4916221;29;20975;-77
2021/05/07 03:03:39;;;;;;;9.77;8.97;;;6.30;99.90;;;;;;4917464;29;20522;-77
2021/05/07 03:06:06;;;;;;;9.83;8.87;;;6.30;99.90;;;;;;4917495;29;20497;-77
2021/05/07 03:08:34;;;;;;;9.50;8.52;;;6.30;99.90;;;;;;4938647;29;20523;-77
2021/05/07 03:11:02;;;;;;;9.30;8.40;;;6.40;99.90;;;;;;4941884;28;20872;-76
2021/05/07 03:13:29;;;;;;;9.40;8.60;;;6.40;99.90;;;;;;4923518;29;20561;-77
2021/05/07 03:15:57;;;;;;;9.17;8.37;;;6.40;99.90;;;;;;4916062;29;20489;-77
2021/05/07 03:18:27;;;;;;;9.40;8.50;;;6.40;99.90;;;;;;4920472;29;20508;-77
2021/05/07 03:20:55;;;;;;;9.03;8.23;;;6.40;99.90;;;;;;4936377;29;20436;-77
2021/05/07 03:23:23;;;;;;;8.30;7.60;;;6.40;99.90;;;;;;4926944;29;20591;-77
2021/05/07 03:25:50;;;;;;;9.53;8.63;;;6.30;99.90;;;;;;4916022;29;20485;-77
2021/05/07 03:28:17;;;;;;;8.70;7.90;;;6.30;99.90;;;;;;4915907;29;20979;-76
2021/05/07 03:30:45;;;;;;;7.80;7.17;;;6.30;99.90;;;;;;4917496;29;20449;-76
2021/05/07 03:33:12;;;;;;;7.97;7.27;;;6.30;99.90;;;;;;4917102;29;20513;-77
2021/05/07 03:35:40;;;;;;;8.03;7.23;;;6.30;99.90;;;;;;4915884;29;20514;-76
2021/05/07 03:38:08;;;;;;;8.67;7.87;;;6.20;99.90;;;;;;4917223;29;20517;-77
2021/05/07 03:40:35;;;;;;;8.97;7.40;;;6.20;99.90;;;;;;4925644;29;20464;-76
2021/05/07 03:43:03;;;;;;;8.23;7.63;;;6.20;99.90;;;;;;4938865;28;20479;-77
2021/05/07 03:45:30;;;;;;;8.60;7.70;;;6.10;99.90;;;;;;4935371;29;20457;-77
2021/05/07 03:47:58;;;;;;;8.60;7.83;;;6.10;99.90;;;;;;4935834;29;20512;-77
2021/05/07 03:50:25;;;;;;;7.90;7.23;;;6.10;99.90;;;;;;4936843;29;20456;-77
2021/05/07 03:52:57;;;;;;;7.73;7.03;;;6.10;99.90;;;;;;4934590;29;20892;-77
2021/05/07 03:55:24;;;;;;;8.13;7.43;;;6.00;99.90;;;;;;4936105;29;20437;-77
2021/05/07 03:57:51;;;;;;;7.60;7.00;;;6.00;99.90;;;;;;4935258;29;20521;-77
2021/05/07 04:00:19;;;;;;;8.03;7.43;;;6.00;99.90;;;;;;4934559;29;20505;-76
2021/05/07 04:02:46;;;;;;;7.70;7.00;;;6.00;99.90;;;;;;4935533;29;20478;-77
2021/05/07 04:05:14;;;;;;;7.27;6.67;;;6.00;99.90;;;;;;4939122;29;20517;-76
2021/05/07 04:07:42;;;;;;;8.20;7.50;;;6.00;99.90;;;;;;4925707;29;20460;-76
2021/05/07 04:10:16;;;;;;;7.23;6.73;;;6.00;99.90;;;;;;4919089;29;20477;-76
2021/05/07 04:15:29;;;;;;;6.83;6.33;;;6.00;99.90;;;;;;4920730;29;20435;-77
2021/05/07 04:17:57;;;;;;;7.90;7.30;;;6.00;99.90;;;;;;4927378;29;20505;-77
2021/05/07 04:20:25;;;;;;;7.33;6.73;;;5.90;99.90;;;;;;4939205;29;20472;-77
2021/05/07 04:22:53;;;;;;;7.83;7.20;;;5.90;99.90;;;;;;4932390;29;20955;-77
2021/05/07 04:25:21;;;;;;;7.50;6.90;;;6.00;99.90;;;;;;4956834;29;20459;-77
2021/05/07 04:27:49;;;;;;;7.77;7.07;;;6.00;99.90;;;;;;4942937;28;20519;-77
2021/05/07 04:30:17;;;;;;;7.83;7.23;;;6.00;99.90;;;;;;4925357;29;20457;-76
2021/05/07 04:32:45;;;;;;;8.57;7.87;;;6.00;99.90;;;;;;4920376;29;20470;-77
2021/05/07 04:35:12;;;;;;;8.30;7.57;;;6.00;99.90;;;;;;4920210;29;20517;-77
2021/05/07 04:37:42;;;;;;;7.80;7.10;;;6.00;99.90;;;;;;4920039;29;20455;-77
2021/05/07 04:40:10;;;;;;;8.00;7.30;;;6.00;99.90;;;;;;4920048;29;20474;-77
2021/05/07 04:42:39;;;;;;;6.80;6.20;;;6.00;99.90;;;;;;4920088;29;20469;-77
2021/05/07 04:45:08;;;;;;;8.07;7.17;;;6.00;99.90;;;;;;4925830;29;20554;-77
2021/05/07 04:47:35;;;;;;;7.27;6.63;;;6.00;99.90;;;;;;4939204;29;20528;-77
2021/05/07 04:50:04;;;;;;;7.53;6.93;;;6.00;99.90;;;;;;4933876;29;20449;-77
2021/05/07 04:52:32;;;;;;;8.57;7.77;;;6.10;99.90;;;;;;4937710;29;20515;-77
2021/05/07 04:54:59;;;;;;;7.80;7.10;;;6.10;99.90;;;;;;4938582;29;20483;-77
2021/05/07 04:57:28;;;;;;;8.23;7.53;;;6.10;99.90;;;;;;4934797;29;20264;-77
2021/05/07 04:59:57;;;;;;;8.63;7.83;;;6.10;99.90;;;;;;4926071;29;20484;-77
2021/05/07 05:02:26;;;;;;;8.50;7.70;;;6.10;99.90;;;;;;4937382;29;20476;-77
2021/05/07 05:04:55;;;;;;;7.10;6.50;;;6.00;99.90;;;;;;4937965;29;20453;-77
2021/05/07 05:07:22;;;;;;;7.47;6.87;;;6.00;99.90;;;;;;4937602;29;20943;-77
2021/05/07 05:09:50;;;;;;;7.33;6.70;;;6.00;99.90;;;;;;4937378;29;20445;-77
2021/05/07 05:12:17;;;;;;;6.70;6.10;;;6.00;99.90;;;;;;4937187;29;20457;-76
2021/05/07 05:14:46;;;;;;;5.97;5.37;;;6.00;99.90;;;;;;4937117;29;20452;-76
2021/05/07 05:17:15;;;;;;;6.50;6.00;;;6.00;99.90;;;;;;4936870;29;20971;-76
2021/05/07 05:19:43;;;;;;;9.00;5.97;;;6.00;99.90;;;;;;4937209;29;20551;-76
2021/05/07 05:22:11;;;;;;;6.23;5.63;;;5.90;99.90;;;;;;4938530;29;20445;-77
2021/05/07 05:24:38;;;;;;;6.40;5.90;;;5.90;99.90;;;;;;4937350;29;21010;-77
2021/05/07 05:27:07;;;;;;;5.80;5.40;;;6.00;99.90;;;;;;4937216;29;20453;-78
2021/05/07 05:29:36;;;;;;;6.13;5.63;;;6.00;99.90;;;;;;4937189;29;20463;-77
2021/05/07 05:32:07;;;;;;;6.37;5.87;;;6.10;99.90;;;;;;4938459;29;20474;-76
2021/05/07 05:34:36;;;;;;;6.50;5.80;;;6.10;99.90;;;;;;4937503;29;20814;-77
2021/05/07 05:37:04;;;;;;;5.37;4.87;;;6.10;99.90;;;;;;4938719;29;20444;-77
2021/05/07 05:39:32;;;;;;;5.40;5.00;;;6.10;99.90;;;;;;4937923;29;20481;-76
2021/05/07 05:42:14;;;;;;;4.30;3.90;;;6.10;99.90;;;;;;4939394;29;20512;-76
2021/05/07 05:44:42;;;;;;;4.27;3.97;;;6.10;99.90;;;;;;4939584;29;20445;-76
2021/05/07 05:47:10;;;;;;;3.93;3.57;;;6.10;99.90;;;;;;4937843;29;20492;-76
2021/05/07 05:49:38;;;;;;;4.07;3.67;;;6.10;99.90;;;;;;4936627;29;20485;-76
2021/05/07 05:52:06;;;;;;;4.13;3.60;;;6.10;99.90;;;;;;4937647;29;20784;-77
2021/05/07 05:54:34;;;;;;;4.23;3.83;;;6.10;99.90;;;;;;4936376;29;20512;-77
2021/05/07 05:57:02;;;;;;;4.00;3.70;;;6.20;99.90;;;;;;4936454;29;20450;-77
2021/05/07 05:59:31;;;;;;;4.70;4.30;;;6.10;99.90;;;;;;4936303;29;20480;-76
2021/05/07 06:02:00;;;;;;;4.07;3.67;;;6.10;99.90;;;;;;4936366;29;20520;-76
2021/05/07 06:04:28;;;;;;;4.40;4.00;;;6.10;99.90;;;;;;4936233;29;20578;-76
2021/05/07 06:06:57;;;;;;;4.50;4.20;;;6.10;99.90;;;;;;4937801;29;20926;-76
2021/05/07 06:09:24;;;;;;;3.97;3.67;;;6.10;99.90;;;;;;4936308;29;20487;-76
2021/05/07 06:11:52;;;;;;;4.20;3.80;;;6.10;99.90;;;;;;4936146;29;20511;-77
2021/05/07 06:14:20;;;;;;;4.40;4.00;;;6.10;99.90;;;;;;4937271;29;20986;-77
2021/05/07 06:17:05;;;;;;;3.70;3.40;;;6.00;99.90;;;;;;4936252;29;20520;-76
2021/05/07 06:19:33;;;;;;;4.73;4.33;;;6.00;99.90;;;;;;4936020;29;20473;-76
2021/05/07 06:22:01;;;;;;;4.50;4.10;;;6.00;99.90;;;;;;4936009;29;20457;-77
2021/05/07 06:24:29;;;;;;;4.67;4.27;;;6.00;99.90;;;;;;4935885;29;20473;-77
2021/05/07 06:26:56;;;;;;;5.50;5.00;;;6.00;99.90;;;;;;4935214;29;20456;-77
2021/05/07 06:29:24;;;;;;;6.17;5.57;;;6.00;99.90;;;;;;4936998;29;20430;-77
2021/05/07 06:31:52;;;;;;;4.50;4.10;;;6.00;99.90;;;;;;4937358;29;20999;-77
2021/05/07 06:34:20;;;;;;;5.30;4.40;;;6.00;99.90;;;;;;4936997;29;20475;-76
2021/05/07 06:36:47;;;;;;;4.80;4.43;;;6.00;99.90;;;;;;4935752;29;20453;-76
2021/05/07 06:39:15;;;;;;;4.27;3.97;;;6.10;99.90;;;;;;4935669;29;20466;-76
2021/05/07 06:41:43;;;;;;;5.30;4.90;;;6.10;99.90;;;;;;4937002;29;20452;-76
2021/05/07 06:44:10;;;;;;;5.70;5.20;;;6.00;99.90;;;;;;4936808;29;21032;-76
2021/05/07 06:46:38;;;;;;;5.10;4.70;;;6.10;99.90;;;;;;4935459;29;20833;-76
2021/05/07 06:49:06;;;;;;;5.83;5.33;;;6.10;99.90;;;;;;4936815;29;20489;-76
2021/05/07 06:51:34;;;;;;;6.13;5.67;;;6.10;99.90;;;;;;4937037;29;20444;-77
2021/05/07 06:54:01;;;;;;;6.50;5.90;;;6.10;99.90;;;;;;4935183;29;20555;-77
2021/05/07 06:56:30;;;;;;;6.63;6.03;;;6.20;99.90;;;;;;4935380;29;20442;-77
2021/05/07 06:58:59;;;;;;;6.40;5.87;;;6.20;99.90;;;;;;4935282;29;20457;-77
2021/05/07 07:01:27;;;;;;;6.00;5.50;;;6.30;99.90;;;;;;4935672;29;20556;-76
2021/05/07 07:03:55;;;;;;;6.80;6.20;;;6.30;99.90;;;;;;4936152;29;20453;-76
2021/05/07 07:06:22;;;;;;;6.60;6.00;;;6.30;99.90;;;;;;4935372;29;20209;-77
2021/05/07 07:08:51;;;;;;;6.10;5.30;;;6.40;99.90;;;;;;4935188;29;20510;-77
2021/05/07 07:11:38;;;;;;;5.93;5.43;;;6.40;99.90;;;;;;4935087;29;20887;-77
2021/05/07 07:14:06;;;;;;;4.80;4.50;;;6.40;99.90;;;;;;4935017;29;20678;-76
2021/05/07 07:16:34;;;;;;;5.10;4.70;;;6.40;99.90;;;;;;4935004;29;20455;-76
2021/05/07 07:19:02;;;;;;;3.13;2.80;;;6.50;99.90;;;;;;4934995;29;20453;-76
2021/05/07 07:21:32;;;;;;;3.23;2.97;;;6.50;99.90;;;;;;4936535;29;20453;-76
2021/05/07 07:23:59;;;;;;;3.10;2.90;;;6.50;99.90;;;;;;4935476;29;20464;-76
2021/05/07 07:26:27;;;;;;;2.60;2.40;;;6.60;99.90;;;;;;4934942;29;20457;-76
2021/05/07 07:28:57;;;;;;;3.20;2.90;;;6.60;99.90;;;;;;4936119;29;20452;-76
2021/05/07 07:31:25;;;;;;;2.60;2.40;;;6.60;99.90;;;;;;4934919;29;20478;-76
2021/05/07 07:33:53;;;;;;;2.37;2.17;;;6.70;99.90;;;;;;4934821;29;20480;-77
2021/05/07 07:36:20;;;;;;;2.97;2.77;;;6.70;99.90;;;;;;4934796;29;20875;-76
2021/05/07 07:38:47;;;;;;;3.80;3.13;;;6.70;99.90;;;;;;4934465;29;20466;-76
2021/05/07 07:41:15;;;;;;;3.40;2.63;;;6.90;99.90;;;;;;4934682;29;20478;-76
2021/05/07 07:43:44;;;;;;;2.93;2.73;;;7.00;99.90;;;;;;4936214;29;20461;-76
2021/05/07 07:46:13;;;;;;;3.40;3.10;;;7.20;99.90;;;;;;4934727;29;20457;-76
2021/05/07 07:48:40;;;;;;;3.60;3.30;;;7.30;99.90;;;;;;4936225;29;20449;-76
2021/05/07 07:51:08;;;;;;;3.27;2.97;;;7.50;99.90;;;;;;4935936;29;20450;-76
2021/05/07 07:53:36;;;;;;;2.37;2.17;;;7.60;99.90;;;;;;4935168;29;20568;-76
2021/05/07 07:56:05;;;;;;;2.73;2.53;;;7.70;99.90;;;;;;4934923;29;20458;-76
2021/05/07 07:58:32;;;;;;;3.80;2.43;;;7.80;99.90;;;;;;4935905;29;20447;-77
2021/05/07 08:01:00;;;;;;;2.93;2.60;;;7.90;99.90;;;;;;4936047;29;20505;-77
2021/05/07 08:03:28;;;;;;;2.50;2.30;;;8.00;99.90;;;;;;4935771;29;20453;-77
2021/05/07 08:05:55;;;;;;;2.27;2.07;;;8.20;99.90;;;;;;4934614;29;20517;-77
2021/05/07 08:08:23;;;;;;;2.53;2.23;;;8.30;99.90;;;;;;4934554;29;20540;-77
2021/05/07 08:10:50;;;;;;;2.50;2.30;;;8.30;99.90;;;;;;4935720;29;20781;-77
2021/05/07 08:13:18;;;;;;;3.70;2.70;;;8.30;99.90;;;;;;4935576;29;20999;-76
2021/05/07 08:15:45;;;;;;;2.80;2.60;;;8.30;99.90;;;;;;4934528;29;20456;-76
2021/05/07 08:18:13;;;;;;;3.40;3.10;;;8.40;99.90;;;;;;4934617;29;20439;-76
2021/05/07 08:20:42;;;;;;;3.50;2.97;;;8.60;99.90;;;;;;4934411;29;20471;-76
2021/05/07 08:23:09;;;;;;;3.70;3.30;;;8.70;99.90;;;;;;4934428;29;20474;-77
2021/05/07 08:25:36;;;;;;;3.13;2.83;;;8.80;99.90;;;;;;4934734;29;20935;-77
2021/05/07 08:28:04;;;;;;;2.93;2.70;;;8.80;99.90;;;;;;4934370;29;20456;-77
2021/05/07 08:30:31;;;;;;;2.90;2.20;;;8.80;99.90;;;;;;4934940;29;20551;-77
2021/05/07 08:32:58;;;;;;;3.17;2.87;;;8.80;99.90;;;;;;4935538;29;20520;-77
2021/05/07 08:35:26;;;;;;;2.87;2.67;;;8.90;99.90;;;;;;4934307;29;20454;-77
2021/05/07 08:37:54;;;;;;;2.90;2.60;;;9.00;99.90;;;;;;4934381;29;20450;-77
2021/05/07 08:40:22;;;;;;;3.47;3.13;;;9.10;99.90;;;;;;4934290;29;20479;-77
2021/05/07 08:42:49;;;;;;;3.17;2.97;;;9.30;99.90;;;;;;4935646;29;21035;-77
2021/05/07 08:45:17;;;;;;;3.23;2.93;;;9.30;99.90;;;;;;4934233;29;20494;-77
2021/05/07 08:48:00;;;;;;;3.93;3.63;;;9.40;99.90;;;;;;4935151;29;20532;-77
2021/05/07 08:50:28;;;;;;;3.45;3.15;;;9.50;99.90;;;;;;4933995;29;20891;-77
2021/05/07 08:52:56;;;;;;;3.20;1.97;;;9.80;99.90;;;;;;4938330;29;20559;-77
2021/05/07 08:55:23;;;;;;;2.37;2.13;;;10.00;99.90;;;;;;4938294;29;20462;-77
2021/05/07 08:57:50;;;;;;;3.10;2.10;;;10.20;99.90;;;;;;4938825;29;20449;-77
2021/05/07 09:00:19;;;;;;;2.47;1.90;;;10.40;99.90;;;;;;4938886;29;20471;-77
2021/05/07 09:02:46;;;;;;;3.20;2.00;;;10.60;99.90;;;;;;4937650;29;20878;-77
2021/05/07 09:05:14;;;;;;;2.30;1.87;;;10.80;99.90;;;;;;4938920;29;20515;-77
2021/05/07 09:07:53;;;;;;;2.27;1.87;;;11.00;99.90;;;;;;4937373;29;20448;-77
2021/05/07 09:10:31;;;;;;;2.30;1.70;;;11.00;99.90;;;;;;4938601;29;20416;-77
2021/05/07 09:12:58;;;;;;;2.87;1.60;;;11.10;99.90;;;;;;4938377;29;20478;-78
2021/05/07 09:15:41;;;;;;;3.00;2.27;;;11.20;99.90;;;;;;4938451;29;20476;-77
2021/05/07 09:18:10;;;;;;;3.83;2.10;;;11.30;99.90;;;;;;4938480;29;20428;-77
2021/05/07 09:20:42;;;;;;;4.60;2.70;;;11.30;99.90;;;;;;4938375;29;20509;-77
2021/05/07 09:23:12;;;;;;;2.77;2.30;;;11.30;99.90;;;;;;4937527;29;20468;-77
2021/05/07 09:25:42;;;;;;;3.50;2.10;;;11.20;99.90;;;;;;4938273;29;20428;-77
2021/05/07 09:28:10;;;;;;;3.00;1.63;;;11.30;99.90;;;;;;4937084;29;20448;-77
2021/05/07 09:30:38;;;;;;;2.47;1.93;;;11.40;99.90;;;;;;4936950;29;20448;-77
2021/05/07 09:33:07;;;;;;;3.60;2.40;;;11.60;99.80;;;;;;4936930;29;20509;-77
2021/05/07 09:35:36;;;;;;;2.77;2.07;;;11.70;99.60;;;;;;4936926;29;20444;-77
2021/05/07 09:38:05;;;;;;;6.50;2.10;;;11.80;99.60;;;;;;4938133;29;20488;-77
2021/05/07 09:40:34;;;;;;;2.50;2.30;;;11.90;99.10;;;;;;4936766;29;20848;-77
2021/05/07 09:43:10;;;;;;;2.27;1.70;;;12.00;99.00;;;;;;4936633;29;20567;-77
2021/05/07 09:45:39;;;;;;;4.70;1.50;;;12.00;98.80;;;;;;4936591;29;20456;-77
2021/05/07 09:48:17;;;;;;;1.40;1.30;;;12.10;98.70;;;;;;4938402;29;20939;-77
2021/05/07 09:50:45;;;;;;;2.40;1.43;;;12.30;98.40;;;;;;4938490;29;20420;-77
2021/05/07 09:53:14;;;;;;;2.17;1.40;;;12.40;98.10;;;;;;4937620;29;20880;-77
2021/05/07 09:55:43;;;;;;;2.33;1.63;;;12.40;97.70;;;;;;4936575;29;20448;-77
2021/05/07 09:58:12;;;;;;;2.20;1.60;;;12.50;97.70;;;;;;4935916;29;20452;-77
2021/05/07 10:00:40;;;;;;;2.67;1.60;;;12.60;97.50;;;;;;4936308;29;20472;-77
2021/05/07 10:03:08;;;;;;;1.93;1.50;;;12.70;97.50;;;;;;4936193;29;20479;-78
2021/05/07 10:05:36;;;;;;;2.23;1.40;;;12.70;97.30;;;;;;4936423;29;20507;-78
2021/05/07 10:08:05;;;;;;;2.37;1.30;;;12.70;97.00;;;;;;4937676;29;20795;-78
2021/05/07 10:10:36;;;;;;;2.57;1.10;;;12.70;96.70;;;;;;4936535;29;20456;-77
2021/05/07 10:13:06;;;;;;;1.97;1.30;;;12.70;96.20;;;;;;4936878;29;20543;-77
2021/05/07 10:15:37;;;;;;;1.77;1.20;;;12.60;95.90;;;;;;4937852;29;20444;-77
2021/05/07 10:18:07;;;;;;;3.33;1.57;;;12.50;95.30;;;;;;4936188;29;20527;-77
2021/05/07 10:20:37;;;;;;;2.53;1.93;;;12.40;95.20;;;;;;4936164;29;20472;-77
2021/05/07 10:23:17;;;;;;;2.20;1.80;;;12.20;95.20;;;;;;4937690;29;20450;-77
2021/05/07 10:25:55;;;;;;;2.80;1.60;;;12.00;95.60;;;;;;4937357;29;20180;-77
2021/05/07 10:28:24;;;;;;;2.73;1.70;;;11.70;95.60;;;;;;4936070;29;20938;-77
2021/05/07 10:31:02;;;;;;;2.50;1.90;;;11.50;95.90;;;;;;4937172;29;20436;-77
2021/05/07 10:33:30;;;;;;;2.60;1.60;;;11.40;96.30;;;;;;4935480;29;20461;-77
2021/05/07 10:35:58;;;;;;;2.60;1.60;;;11.50;96.80;;;;;;4935800;29;20200;-77
2021/05/07 10:38:26;;;;;;;1.93;1.50;;;11.40;96.80;;;;;;4935715;29;20942;-77
2021/05/07 10:41:10;;;;;;;4.30;2.67;;;11.40;97.10;;;;;;4935662;29;20468;-77
2021/05/07 10:43:38;;;;;;;4.00;2.00;;;11.40;97.10;;;;;;4935642;29;20476;-78
2021/05/07 10:46:08;;;;;;;2.00;1.50;;;11.40;97.10;;;;;;4936918;29;20439;-78
2021/05/07 10:48:35;;;;;;;2.97;1.37;;;11.40;97.20;;;;;;4935862;29;20847;-78
2021/05/07 10:51:14;;;;;;;1.30;1.20;;;11.50;97.20;;;;;;4935921;29;20460;-78
2021/05/07 10:53:42;;;;;;;2.20;1.30;;;11.70;97.20;;;;;;4935713;29;20478;-78
2021/05/07 10:56:21;;;;;;;2.70;1.80;;;11.80;97.30;;;;;;4935713;29;20452;-78
2021/05/07 10:58:50;;;;;;;3.50;1.40;;;11.90;97.20;;;;;;4935846;29;20436;-78
2021/05/07 11:01:23;;;;;;;2.10;1.23;;;12.00;96.60;;;;;;4935926;29;20567;-77
2021/05/07 11:04:05;;;;;;;2.50;1.50;;;11.90;96.40;;;;;;4935342;29;20475;-77
2021/05/07 11:06:35;;;;;;;1.63;1.20;;;12.00;96.10;;;;;;4936582;29;20779;-77
2021/05/07 11:09:14;;;;;;;1.50;1.27;;;12.10;96.20;;;;;;4936699;29;20460;-78
2021/05/07 11:11:41;;;;;;;2.60;1.50;;;12.20;96.10;;;;;;4936241;29;20452;-78
2021/05/07 11:14:11;;;;;;;1.90;1.60;;;12.30;95.90;;;;;;4934544;29;21058;-78
2021/05/07 11:16:41;;;;;;;3.70;1.60;;;12.30;95.60;;;;;;4935145;29;20858;-78
2021/05/07 11:19:19;;;;;;;2.80;1.63;;;12.20;95.40;;;;;;4935104;29;20451;-77
2021/05/07 11:21:55;;;;;;;3.10;1.40;;;12.10;95.30;;;;;;4936316;29;20514;-77
2021/05/07 11:24:26;;;;;;;3.37;1.77;;;12.10;95.20;;;;;;4934944;29;20482;-77
2021/05/07 11:26:54;;;;;;;3.30;1.97;;;12.00;95.10;;;;;;4935059;29;20522;-77
2021/05/07 11:29:27;;;;;;;2.20;1.50;;;11.90;94.90;;;;;;4934931;29;20546;-78
2021/05/07 11:32:09;;;;;;;3.17;1.67;;;11.80;94.70;;;;;;4935029;29;20562;-77
2021/05/07 11:34:37;;;;;;;2.37;1.60;;;11.70;94.70;;;;;;4935067;29;20448;-78
2021/05/07 11:37:08;;;;;;;1.97;1.60;;;11.50;94.60;;;;;;4935772;29;20456;-78
2021/05/07 11:39:36;;;;;;;1.50;1.23;;;11.50;94.80;;;;;;4935027;29;20456;-78
2021/05/07 11:42:06;;;;;;;2.10;1.90;;;11.40;94.90;;;;;;4934831;29;20436;-77
2021/05/07 11:44:34;;;;;;;5.53;2.93;;;11.50;95.10;;;;;;4934868;29;20459;-77
2021/05/07 11:47:06;;;;;;;2.90;1.97;;;11.70;95.30;;;;;;4934780;29;20838;-77
2021/05/07 11:49:35;;;;;;;2.63;1.85;;;11.70;95.30;;;;;;4933987;29;20828;-77
2021/05/07 11:52:03;;;;;;;2.07;1.80;;;12.00;95.60;;;;;;4934837;29;20226;-77
2021/05/07 11:54:44;;;;;;;5.53;1.60;;;12.10;95.50;;;;;;4934696;29;20480;-77
2021/05/07 11:57:13;;;;;;;1.87;1.10;;;12.30;95.10;;;;;;4936234;29;20424;-77
2021/05/07 11:59:51;;;;;;;1.60;1.30;;;12.30;94.70;;;;;;4933797;29;20959;-77
2021/05/07 12:02:43;;;;;;;2.80;1.80;;;12.50;92.70;;;;;;4934805;29;20188;-78
2021/05/07 12:05:14;;;;;;;2.20;1.50;;;12.50;92.60;;;;;;4936447;29;20457;-77
2021/05/07 12:07:46;;;;;;;2.37;1.43;;;12.50;92.70;;;;;;4936110;29;20440;-77
2021/05/07 12:10:23;;;;;;;2.83;1.80;;;12.40;92.50;;;;;;4936272;29;20818;-77
2021/05/07 12:12:54;;;;;;;2.17;1.57;;;12.40;92.50;;;;;;4936045;29;20479;-77
2021/05/07 12:15:25;;;;;;;3.63;1.87;;;12.20;92.60;;;;;;4934926;29;20499;-77
2021/05/07 12:18:15;;;;;;;1.97;1.60;;;12.10;92.50;;;;;;4935090;29;20810;-78
2021/05/07 12:20:46;;;;;;;2.30;1.10;;;12.00;92.50;;;;;;4934543;29;20476;-77
2021/05/07 12:23:15;;;;;;;1.53;1.27;;;12.00;92.50;;;;;;4934475;29;20504;-78
2021/05/07 12:25:44;;;;;;;1.93;1.20;;;12.00;92.30;;;;;;4936532;29;20484;-78
2021/05/07 12:28:16;;;;;;;1.70;1.20;;;12.00;92.20;;;;;;4934950;29;20540;-78
2021/05/07 12:30:46;;;;;;;1.83;1.53;;;12.00;92.10;;;;;;4920546;29;20457;-78
2021/05/07 12:33:17;;;;;;;2.50;1.70;;;12.10;92.20;;;;;;4919064;29;20468;-77
2021/05/07 12:35:47;;;;;;;4.30;1.90;;;12.20;92.30;;;;;;4920938;29;20512;-78
2021/05/07 12:38:34;;;;;;;1.70;1.60;;;12.40;92.40;;;;;;4918994;29;20492;-77
2021/05/07 12:41:06;;;;;;;1.83;1.70;;;12.60;92.60;;;;;;4918807;29;20496;-77
2021/05/07 12:43:35;;;;;;;2.10;1.70;;;12.70;92.60;;;;;;4918837;29;20469;-78
2021/05/07 12:46:03;;;;;;;3.13;2.20;;;12.80;92.60;;;;;;4918771;29;20544;-78
2021/05/07 12:48:52;;;;;;;2.23;2.03;;;12.80;92.50;;;;;;4918739;29;20449;-78
2021/05/07 12:51:21;;;;;;;2.77;2.07;;;12.70;92.30;;;;;;4920204;29;20464;-78
2021/05/07 12:53:49;;;;;;;3.67;1.83;;;12.50;92.30;;;;;;4918572;29;20475;-78
2021/05/07 12:56:17;;;;;;;3.10;1.80;;;12.40;92.50;;;;;;4919240;29;20456;-78
2021/05/07 12:58:45;;;;;;;2.53;1.80;;;12.20;92.50;;;;;;4919822;29;20437;-77
2021/05/07 13:01:12;;;;;;;2.70;1.90;;;12.10;92.60;;;;;;4918492;29;20552;-77
2021/05/07 13:03:40;;;;;;;3.33;1.80;;;12.10;92.70;;;;;;4918277;29;20527;-77
2021/05/07 13:06:09;;;;;;;2.07;1.87;;;12.00;92.80;;;;;;4919612;29;20445;-77